Newton, NC (28658)

11:40 AM EDT on March 26, 2017 (GMT -0400)
North Main Avenue Historic District | | Change Station

Elev 1000 ft 35.67 °N, 81.22 °W | Updated 2 seconds ago

Rain
Rain
59.2 °F
Feels Like 59.2 °F
N
0.0
Wind Variable Wind from ESE
Gusts 1.8 mph

Today
High -- | Low -- °F
--% Chance of Precip.
Yesterday
High -- | Low -- °F
Precip. -- in
Pressure 30.20 in
Visibility 4.0 miles
Clouds Mostly Cloudy 900 ft
Mostly Cloudy 2200 ft
Overcast 6500 ft
Dew Point 58 °F
Humidity 95%
Rainfall 0.30 in
Snow Depth Not available.
7:19 AM 7:41 PM
Waning Crescent, 3% visible
SPECI KHKY 261525Z 19004KT 4SM RA BR BKN009 BKN022 OVC065 14/13 A3020 RMK AO2 P0005 T01390133
Pressure 30.20 in
Visibility 4.0 miles
Clouds Mostly Cloudy 900 ft
Mostly Cloudy 2200 ft
Overcast 6500 ft
Dew Point 58 °F
Humidity 95%
Rainfall 0.30 in
Snow Depth Not available.
7:19 AM 7:41 PM
Waning Crescent, 3% visible
SPECI KHKY 261525Z 19004KT 4SM RA BR BKN009 BKN022 OVC065 14/13 A3020 RMK AO2 P0005 T01390133

Get Severe Weather Alerts

Thanks for signing up!

Be on the lookout for a verification email in your inbox.

You'll start receiving the daily forecast at 8 AM.

×

10-Day Weather Forecast

Almanac

Astronomy

Mar. 26, 2017 Rise Set
Actual Time
Civil Twilight
Nautical Twilight
Astronomical Twilight
Moon
Length of Visible Light
Length of Day
Tomorrow will be .
, % of the Moon is Illuminated

Today's Extremes

State Highs State Lows

Community

WunderPhotos

Upload Photos

1,962,540 photos uploaded!

WunderBlog® & News

Nearby

Air Quality

  Air Quality AQ Index Pollutant
Not available.

Snow Depth

Station Depth Elevation

Earthquake Activity

City Distance Mag. Time & Date
Minimum magnitude displayed is 2.5.

Earthquake Activity

City Distance Mag. Time & Date
Minimum magnitude displayed is 2.5.

Coastal Water Temperatures

Place Temperature

Stations

Nearby Weather Stations

Station Location Temp. Windchill Dew Point Humidity Wind Precip. Elev Updated Type
                   

Watches & Warnings

There are currently no watches in effect.